Time;durP1;ratioP1;P1;durP2;ratioP2;P2;SDS_P1;SDS_P2;PMS_P1;PMS_P2;Temp;Humidity;BMP_temperature;BMP_pressure;BME280_temperature;BME280_humidity;BME280_pressure;Samples;Min_cycle;Max_cycle;Signal;HPM_P1;HPM_P2
2023/10/16 00:01:52;;;;;;;8.68;3.03;;;6.20;99.90;;;;;;4992101;28;20103;-79
2023/10/16 00:04:18;;;;;;;7.22;2.70;;;6.20;99.90;;;;;;5026448;28;20081;-79
2023/10/16 00:06:49;;;;;;;9.00;2.90;;;6.20;99.90;;;;;;5021292;28;20041;-79
2023/10/16 00:09:15;;;;;;;6.53;2.60;;;6.20;99.90;;;;;;4997408;28;20065;-79
2023/10/16 00:11:42;;;;;;;13.65;3.10;;;6.20;99.90;;;;;;5022114;28;20045;-79
2023/10/16 00:14:30;;;;;;;6.70;2.78;;;6.30;99.90;;;;;;5011428;28;20041;-79
2023/10/16 00:16:57;;;;;;;2.90;1.58;;;6.40;99.90;;;;;;5001087;28;20076;-79
2023/10/16 00:19:26;;;;;;;6.68;2.60;;;6.30;99.90;;;;;;5003803;28;20398;-79
2023/10/16 00:21:57;;;;;;;6.93;2.85;;;6.30;99.90;;;;;;5012078;28;20048;-80
2023/10/16 00:24:23;;;;;;;8.32;2.83;;;6.30;99.90;;;;;;5010319;28;20078;-79
2023/10/16 00:26:51;;;;;;;11.15;2.80;;;6.30;99.90;;;;;;5029426;28;20072;-79
2023/10/16 00:29:24;;;;;;;6.53;2.50;;;6.20;99.90;;;;;;5027578;28;20038;-79
2023/10/16 00:31:51;;;;;;;2.58;1.52;;;6.20;99.90;;;;;;5015766;28;20049;-79
2023/10/16 00:34:20;;;;;;;8.43;3.13;;;6.20;99.90;;;;;;5027344;28;20044;-79
2023/10/16 00:36:50;;;;;;;6.55;2.70;;;6.20;99.90;;;;;;5014529;28;20452;-79
2023/10/16 00:39:17;;;;;;;6.35;2.30;;;6.20;99.90;;;;;;4989807;28;20041;-79
2023/10/16 00:41:46;;;;;;;6.97;2.63;;;6.10;99.90;;;;;;4998174;28;20030;-79
2023/10/16 00:44:19;;;;;;;3.55;1.73;;;6.20;99.90;;;;;;4996158;28;20037;-79
2023/10/16 00:46:50;;;;;;;2.08;1.50;;;6.20;99.90;;;;;;5031272;28;20041;-79
2023/10/16 00:49:18;;;;;;;6.30;2.60;;;6.20;99.90;;;;;;5027818;28;20041;-79
2023/10/16 00:51:45;;;;;;;5.70;2.40;;;6.20;99.90;;;;;;4988514;28;20448;-79
2023/10/16 00:54:17;;;;;;;5.38;2.63;;;6.20;99.90;;;;;;4991870;28;20038;-79
2023/10/16 00:56:45;;;;;;;4.72;2.50;;;6.20;99.90;;;;;;4987894;28;20037;-79
2023/10/16 00:59:17;;;;;;;7.80;2.40;;;6.20;99.90;;;;;;4999556;28;20076;-79
2023/10/16 01:01:46;;;;;;;4.85;2.58;;;6.30;99.90;;;;;;5015600;28;20038;-79
2023/10/16 01:04:19;;;;;;;1.95;1.10;;;6.30;99.90;;;;;;5008278;28;20072;-80
2023/10/16 01:06:45;;;;;;;;;;;6.40;99.90;;;;;;4999850;28;20050;-79
2023/10/16 01:09:22;;;;;;;7.05;2.20;;;6.40;99.90;;;;;;5009052;28;20403;-80
2023/10/16 01:11:48;;;;;;;6.20;2.42;;;6.40;99.90;;;;;;5020292;28;20112;-80
2023/10/16 01:14:14;;;;;;;4.47;2.38;;;6.50;99.90;;;;;;5008224;28;20496;-79
2023/10/16 01:16:40;;;;;;;6.18;2.63;;;6.50;99.90;;;;;;5021595;28;20069;-80
2023/10/16 01:19:09;;;;;;;4.47;2.47;;;6.50;99.90;;;;;;4998101;28;20136;-80
2023/10/16 01:21:35;;;;;;;6.43;2.40;;;6.50;99.90;;;;;;5001209;28;20088;-80
2023/10/16 01:24:11;;;;;;;6.75;2.30;;;6.60;99.90;;;;;;4990388;28;20061;-80
2023/10/16 01:26:38;;;;;;;4.15;2.20;;;6.60;99.90;;;;;;5020628;28;20092;-79
2023/10/16 01:29:07;;;;;;;6.10;2.25;;;6.60;99.90;;;;;;4967821;28;20042;-79
2023/10/16 01:31:33;;;;;;;5.10;2.20;;;6.70;99.90;;;;;;5001772;28;20125;-79
2023/10/16 01:33:59;;;;;;;4.18;1.48;;;6.70;99.90;;;;;;5008386;28;20045;-79
2023/10/16 01:36:25;;;;;;;7.13;2.15;;;6.70;99.90;;;;;;5004356;28;20041;-80
2023/10/16 01:38:51;;;;;;;5.63;2.40;;;6.70;99.90;;;;;;4998396;28;20041;-80
2023/10/16 01:41:18;;;;;;;6.40;2.38;;;6.80;99.90;;;;;;4987133;28;20128;-80
2023/10/16 01:43:44;;;;;;;5.35;2.28;;;6.70;99.90;;;;;;4982516;28;20034;-80
2023/10/16 01:46:12;;;;;;;4.13;2.30;;;6.70;99.90;;;;;;5008071;28;20040;-80
2023/10/16 01:48:44;;;;;;;6.78;2.65;;;6.80;99.90;;;;;;4990478;28;20037;-80
2023/10/16 01:51:19;;;;;;;6.93;3.05;;;6.70;99.90;;;;;;4998552;28;20071;-80
2023/10/16 01:53:47;;;;;;;6.38;2.40;;;6.70;99.90;;;;;;5003762;28;20041;-80
2023/10/16 01:56:14;;;;;;;5.18;2.53;;;6.70;99.90;;;;;;4989469;28;20041;-80
2023/10/16 01:58:47;;;;;;;5.60;2.40;;;6.70;99.90;;;;;;5023418;28;20025;-80
2023/10/16 02:01:16;;;;;;;3.13;2.10;;;6.70;99.90;;;;;;4997039;28;20030;-80
2023/10/16 02:03:44;;;;;;;3.35;2.20;;;6.70;99.90;;;;;;5017557;28;20472;-80
2023/10/16 02:06:13;;;;;;;3.75;2.10;;;6.80;99.90;;;;;;5015185;28;20038;-80
2023/10/16 02:08:40;;;;;;;5.00;2.15;;;6.70;99.90;;;;;;5017232;28;20449;-79
2023/10/16 02:11:06;;;;;;;5.28;2.20;;;6.70;99.90;;;;;;5017799;28;20038;-80
2023/10/16 02:13:36;;;;;;;5.20;2.28;;;6.80;99.90;;;;;;5007783;28;20459;-80
2023/10/16 02:16:06;;;;;;;2.55;1.92;;;6.70;99.90;;;;;;5011188;28;20501;-80
2023/10/16 02:18:40;;;;;;;5.45;2.03;;;6.70;99.90;;;;;;5022967;28;20087;-79
2023/10/16 02:21:11;;;;;;;3.95;2.15;;;6.70;99.90;;;;;;5025397;28;20053;-79
2023/10/16 02:23:38;;;;;;;5.90;2.30;;;6.70;99.90;;;;;;5021469;28;20080;-80
2023/10/16 02:26:06;;;;;;;4.40;1.95;;;6.70;99.90;;;;;;5002064;28;20042;-80
2023/10/16 02:28:35;;;;;;;3.20;1.77;;;6.70;99.90;;;;;;5020605;28;20117;-80
2023/10/16 02:31:13;;;;;;;5.53;2.20;;;6.70;99.90;;;;;;4993190;28;20439;-80
2023/10/16 02:33:50;;;;;;;5.63;2.25;;;6.80;99.90;;;;;;5001516;28;20065;-80
2023/10/16 02:36:18;;;;;;;4.07;2.17;;;6.80;99.90;;;;;;5020261;28;20507;-80
2023/10/16 02:38:44;;;;;;;4.95;2.17;;;6.80;99.90;;;;;;5018128;28;20041;-80
2023/10/16 02:41:10;;;;;;;5.00;2.15;;;6.90;99.90;;;;;;5019897;28;20045;-80
2023/10/16 02:43:41;;;;;;;4.35;2.30;;;6.90;99.90;;;;;;5004149;28;20041;-80
2023/10/16 02:46:09;;;;;;;3.95;2.22;;;6.80;99.90;;;;;;5005472;28;20591;-80
2023/10/16 02:48:35;;;;;;;8.23;2.47;;;7.00;99.90;;;;;;5022824;28;20095;-80
2023/10/16 02:51:02;;;;;;;5.15;2.65;;;6.90;99.90;;;;;;4993019;28;20042;-80
2023/10/16 02:53:29;;;;;;;5.25;2.40;;;6.90;99.90;;;;;;4998293;28;20041;-80
2023/10/16 02:56:05;;;;;;;5.95;2.58;;;6.90;99.90;;;;;;5006548;28;20053;-80
2023/10/16 02:58:32;;;;;;;3.60;2.40;;;6.90;99.90;;;;;;4992297;28;20044;-80
2023/10/16 03:00:59;;;;;;;7.70;2.80;;;6.80;99.90;;;;;;5007050;28;20088;-80
2023/10/16 03:03:26;;;;;;;7.05;2.38;;;6.80;99.90;;;;;;5005427;28;20128;-80
2023/10/16 03:05:55;;;;;;;8.00;3.03;;;6.80;99.90;;;;;;4970786;28;20556;-80
2023/10/16 03:08:30;;;;;;;9.50;3.10;;;6.70;99.90;;;;;;4997597;28;20034;-80
2023/10/16 03:11:00;;;;;;;10.18;3.20;;;6.70;99.90;;;;;;5000675;28;20046;-80
2023/10/16 03:13:26;;;;;;;7.40;3.42;;;6.70;99.90;;;;;;4983275;28;20069;-80
2023/10/16 03:16:38;;;;;;;7.40;2.88;;;6.70;99.90;;;;;;4985757;28;20066;-80
2023/10/16 03:18:43;;;;;;;5.18;3.20;;;6.60;99.90;;;;;;5009334;28;20399;-80
2023/10/16 03:21:31;;;;;;;6.68;3.35;;;6.60;99.90;;;;;;5003938;28;20045;-80
2023/10/16 03:23:58;;;;;;;9.80;3.72;;;6.70;99.90;;;;;;5015455;28;20053;-80
2023/10/16 03:26:33;;;;;;;8.05;3.60;;;6.60;99.90;;;;;;5008556;28;20125;-80
2023/10/16 03:29:01;;;;;;;6.85;3.33;;;6.60;99.90;;;;;;4994868;28;20045;-80
2023/10/16 03:31:29;;;;;;;6.47;3.78;;;6.60;99.90;;;;;;5008594;28;20102;-80
2023/10/16 03:33:55;;;;;;;5.78;3.63;;;6.60;99.90;;;;;;5019825;28;20508;-80
2023/10/16 03:36:24;;;;;;;11.10;4.40;;;6.60;99.90;;;;;;5016062;28;20060;-79
2023/10/16 03:38:53;;;;;;;8.10;4.18;;;6.60;99.90;;;;;;5019277;28;20041;-79
2023/10/16 03:43:58;;;;;;;10.75;4.60;;;6.60;99.90;;;;;;5008214;28;20041;-80
2023/10/16 03:46:27;;;;;;;8.90;4.32;;;6.50;99.90;;;;;;5007761;28;20046;-80
2023/10/16 03:48:54;;;;;;;7.82;4.82;;;6.60;99.90;;;;;;5016459;28;20515;-80
2023/10/16 03:51:21;;;;;;;6.18;4.30;;;6.50;99.90;;;;;;5017944;28;20026;-80
2023/10/16 03:53:50;;;;;;;10.82;4.40;;;6.50;99.90;;;;;;5016241;28;20033;-80
2023/10/16 03:56:16;;;;;;;8.15;4.47;;;6.50;99.90;;;;;;4998530;28;20048;-80
2023/10/16 03:58:44;;;;;;;10.85;5.35;;;6.50;99.90;;;;;;5000025;28;20037;-80
2023/10/16 04:01:13;;;;;;;10.18;5.30;;;6.50;99.90;;;;;;4991319;28;20088;-80
2023/10/16 04:03:50;;;;;;;7.85;5.05;;;6.50;99.90;;;;;;5018875;28;20045;-80
2023/10/16 04:06:20;;;;;;;7.43;5.00;;;6.50;99.90;;;;;;5015882;28;20131;-80
2023/10/16 04:08:47;;;;;;;7.80;4.57;;;6.60;99.90;;;;;;5003387;28;20214;-80
2023/10/16 04:11:14;;;;;;;7.60;4.95;;;6.60;99.90;;;;;;5014646;28;20123;-80
2023/10/16 04:13:48;;;;;;;8.55;4.90;;;6.70;99.90;;;;;;5022528;28;20034;-80
2023/10/16 04:16:31;;;;;;;7.97;4.97;;;6.60;99.90;;;;;;5006131;28;20034;-80
2023/10/16 04:21:45;;;;;;;6.75;5.40;;;6.70;99.90;;;;;;5006961;28;20088;-80
2023/10/16 04:30:09;;;;;;;7.25;5.38;;;6.70;99.90;;;;;;5021125;28;20063;-80
2023/10/16 04:32:40;;;;;;;9.32;5.97;;;6.70;99.90;;;;;;5011950;28;20037;-79
2023/10/16 04:38:27;;;;;;;7.82;5.40;;;6.80;99.90;;;;;;5023351;28;20053;-78
2023/10/16 04:43:51;;;;;;;10.60;5.97;;;6.80;99.90;;;;;;5010225;28;20073;-80
2023/10/16 04:46:20;;;;;;;9.40;6.20;;;6.80;99.90;;;;;;5006855;28;20039;-80
2023/10/16 04:48:51;;;;;;;10.15;5.70;;;6.80;99.90;;;;;;5016111;28;20052;-81
2023/10/16 04:51:22;;;;;;;12.38;6.00;;;6.80;99.90;;;;;;5004583;28;20037;-81
2023/10/16 04:53:58;;;;;;;10.68;5.72;;;6.90;99.90;;;;;;4998358;28;20068;-81
2023/10/16 04:59:36;;;;;;;10.48;6.63;;;6.90;99.90;;;;;;5019084;28;20053;-81
2023/10/16 05:02:10;;;;;;;11.57;6.30;;;6.80;99.90;;;;;;5011623;28;20536;-81
2023/10/16 05:05:32;;;;;;;9.93;6.90;;;6.80;99.90;;;;;;5006678;28;20037;-81
2023/10/16 05:07:38;;;;;;;10.25;6.50;;;6.80;99.90;;;;;;5014451;28;20037;-81
2023/10/16 05:15:54;;;;;;;13.40;6.60;;;6.80;99.90;;;;;;5022853;28;20407;-81
2023/10/16 05:18:43;;;;;;;11.35;6.88;;;6.80;99.90;;;;;;5004159;28;20042;-81
2023/10/16 05:22:01;;;;;;;8.82;6.57;;;6.80;99.90;;;;;;5002045;28;20577;-81
2023/10/16 06:16:17;;;;;;;14.93;8.18;;;6.60;99.90;;;;;;4988907;28;20046;-81
2023/10/16 06:18:47;;;;;;;15.07;8.30;;;6.60;99.90;;;;;;5008203;28;20460;-81
2023/10/16 06:21:15;;;;;;;14.10;8.40;;;6.60;99.90;;;;;;4989459;28;20033;-81
2023/10/16 06:23:43;;;;;;;14.55;8.48;;;6.60;99.90;;;;;;5026980;28;20642;-81
2023/10/16 06:26:09;;;;;;;11.05;7.90;;;6.70;99.90;;;;;;4991186;28;20076;-81
2023/10/16 06:28:46;;;;;;;11.80;8.15;;;6.70;99.90;;;;;;5016327;28;20060;-81
2023/10/16 06:31:24;;;;;;;13.15;7.78;;;6.60;99.90;;;;;;5017217;28;20072;-82
2023/10/16 06:33:58;;;;;;;16.20;8.80;;;6.70;99.90;;;;;;4991591;28;20692;-83
2023/10/16 06:36:24;;;;;;;13.25;7.40;;;6.70;99.90;;;;;;5019759;28;20033;-86
2023/10/16 06:38:53;;;;;;;11.50;7.57;;;6.70;99.90;;;;;;4987884;28;20030;-85
2023/10/16 06:41:20;;;;;;;11.45;7.72;;;6.70;99.90;;;;;;5017788;28;20034;-85
2023/10/16 06:43:49;;;;;;;13.50;7.65;;;6.80;99.90;;;;;;4983197;28;19956;-85
2023/10/16 06:46:25;;;;;;;12.18;7.60;;;6.80;99.90;;;;;;5021955;28;20041;-86
2023/10/16 06:48:51;;;;;;;13.68;7.15;;;6.80;99.90;;;;;;5005853;28;20100;-87
2023/10/16 06:51:18;;;;;;;12.00;7.43;;;6.90;99.90;;;;;;4997741;28;20030;-90
2023/10/16 06:53:45;;;;;;;12.60;7.32;;;6.90;99.90;;;;;;5012977;28;20491;-85
2023/10/16 06:56:14;;;;;;;10.90;6.70;;;6.90;99.90;;;;;;5005190;28;20547;-87
2023/10/16 06:58:40;;;;;;;13.77;7.32;;;7.00;99.90;;;;;;5014672;28;20538;-88
2023/10/16 07:01:06;;;;;;;11.55;7.20;;;7.00;99.90;;;;;;4996652;28;20045;-83
2023/10/16 07:03:38;;;;;;;12.48;7.45;;;7.10;99.90;;;;;;5006116;28;20053;-82
2023/10/16 07:06:05;;;;;;;11.35;7.18;;;7.10;99.90;;;;;;5006343;28;20046;-82
2023/10/16 07:08:33;;;;;;;11.43;7.28;;;7.10;99.90;;;;;;4990272;28;20125;-82
2023/10/16 07:11:03;;;;;;;12.90;7.65;;;7.20;99.90;;;;;;5011648;28;20515;-82
2023/10/16 07:13:31;;;;;;;14.15;6.50;;;7.20;99.90;;;;;;4998437;28;20042;-82
2023/10/16 07:16:02;;;;;;;10.68;6.40;;;7.20;99.90;;;;;;4998034;28;20583;-82
2023/10/16 07:18:31;;;;;;;11.55;6.13;;;7.30;99.90;;;;;;5013483;28;20037;-82
2023/10/16 07:21:00;;;;;;;9.65;6.15;;;7.30;99.90;;;;;;4982605;28;20514;-81
2023/10/16 07:23:30;;;;;;;8.75;6.03;;;7.30;99.90;;;;;;5029960;28;20141;-81
2023/10/16 07:25:59;;;;;;;8.55;5.50;;;7.40;99.90;;;;;;5010007;28;20332;-82
2023/10/16 07:28:27;;;;;;;10.32;5.93;;;7.40;99.90;;;;;;5006966;28;20041;-83
2023/10/16 07:30:56;;;;;;;10.50;5.72;;;7.50;99.90;;;;;;5021495;28;20094;-85
2023/10/16 07:33:22;;;;;;;8.73;5.70;;;7.50;99.90;;;;;;5008463;28;20033;-84
2023/10/16 07:35:53;;;;;;;7.90;5.07;;;7.60;99.90;;;;;;5004520;28;20043;-84
2023/10/16 07:38:21;;;;;;;8.88;5.18;;;7.70;99.90;;;;;;4994540;28;20041;-83
2023/10/16 07:40:58;;;;;;;10.70;5.43;;;7.70;99.90;;;;;;5024071;28;20041;-82
2023/10/16 07:43:28;;;;;;;9.30;5.05;;;7.80;99.90;;;;;;5006146;28;20411;-82
2023/10/16 07:48:52;;;;;;;;;;;7.90;99.90;;;;;;5021049;28;20385;-81
2023/10/16 07:51:25;;;;;;;8.32;4.82;;;8.00;99.90;;;;;;5009739;28;20349;-81
2023/10/16 07:53:51;;;;;;;8.50;5.32;;;8.00;99.90;;;;;;5015840;28;20038;-81
2023/10/16 07:56:19;;;;;;;9.45;4.93;;;8.10;99.90;;;;;;4990015;28;20128;-81
2023/10/16 07:58:49;;;;;;;11.55;5.32;;;8.10;99.90;;;;;;5028832;28;20044;-81
2023/10/16 08:01:32;;;;;;;6.15;4.90;;;8.10;99.90;;;;;;5020715;28;20093;-81
2023/10/16 08:03:58;;;;;;;8.60;4.82;;;8.20;99.90;;;;;;4992746;28;20048;-83
2023/10/16 08:06:25;;;;;;;7.95;4.80;;;8.30;99.90;;;;;;5002993;28;20041;-84
2023/10/16 08:09:29;;;;;;;8.98;4.80;;;8.30;99.90;;;;;;5003748;28;20392;-83
2023/10/16 08:11:43;;;;;;;9.13;4.22;;;8.30;99.90;;;;;;5007589;28;20092;-83
2023/10/16 08:14:13;;;;;;;8.70;4.75;;;8.40;99.90;;;;;;5008407;28;20042;-81
2023/10/16 08:16:39;;;;;;;9.48;4.50;;;8.40;99.90;;;;;;4995629;28;20036;-81
2023/10/16 08:19:24;;;;;;;9.32;4.40;;;8.50;99.90;;;;;;5016853;28;20046;-81
2023/10/16 08:21:50;;;;;;;7.38;3.88;;;8.60;99.90;;;;;;5019067;28;20041;-81
2023/10/16 08:24:21;;;;;;;7.25;3.90;;;8.60;99.90;;;;;;5017041;28;20095;-81
2023/10/16 08:26:48;;;;;;;7.70;4.00;;;8.70;99.90;;;;;;4998529;28;20611;-82
2023/10/16 08:32:37;;;;;;;8.23;4.25;;;8.90;99.90;;;;;;5030864;28;20057;-79
2023/10/16 08:34:40;;;;;;;6.15;3.50;;;8.90;99.90;;;;;;5009097;28;20450;-80
2023/10/16 08:37:08;;;;;;;7.60;3.70;;;9.00;99.90;;;;;;4986286;28;20050;-80
2023/10/16 08:39:37;;;;;;;8.00;4.28;;;9.10;99.90;;;;;;4986043;28;20069;-81
2023/10/16 08:42:19;;;;;;;7.05;3.95;;;9.20;99.90;;;;;;4991666;28;20126;-80
2023/10/16 08:45:01;;;;;;;6.97;3.63;;;9.20;99.90;;;;;;5011478;28;20045;-80
2023/10/16 08:47:29;;;;;;;5.82;3.15;;;9.30;99.90;;;;;;5029813;28;20057;-81
2023/10/16 08:49:55;;;;;;;8.52;3.05;;;9.40;99.90;;;;;;5000497;28;20038;-81
2023/10/16 08:52:23;;;;;;;5.47;2.88;;;9.50;99.90;;;;;;5015837;28;20050;-81
2023/10/16 08:57:19;;;;;;;9.02;2.78;;;9.70;99.90;;;;;;5012215;28;20104;-79
2023/10/16 08:59:49;;;;;;;5.93;3.03;;;9.90;99.90;;;;;;4984616;28;20495;-80
2023/10/16 09:02:17;;;;;;;6.10;2.70;;;10.00;99.90;;;;;;4990790;28;20148;-80
2023/10/16 09:04:44;;;;;;;5.00;2.50;;;10.10;99.90;;;;;;4990825;28;20060;-81
2023/10/16 09:07:19;;;;;;;5.78;2.75;;;10.20;99.90;;;;;;5006611;28;20096;-81
2023/10/16 09:09:48;;;;;;;7.32;2.90;;;10.30;99.90;;;;;;4988204;28;20095;-81
2023/10/16 09:12:27;;;;;;;7.45;2.72;;;10.30;99.90;;;;;;4980793;28;20048;-81
2023/10/16 09:15:05;;;;;;;7.43;2.25;;;10.40;99.90;;;;;;5006557;28;20038;-80
2023/10/16 09:17:36;;;;;;;5.57;2.13;;;10.40;99.90;;;;;;4991300;28;20038;-81
2023/10/16 09:20:13;;;;;;;6.30;2.40;;;10.50;99.90;;;;;;4989265;28;20107;-81
2023/10/16 09:22:45;;;;;;;5.25;2.42;;;10.50;99.90;;;;;;5007364;28;20490;-80
2023/10/16 09:25:15;;;;;;;3.33;2.40;;;10.60;99.90;;;;;;4980477;28;20404;-81
2023/10/16 09:27:52;;;;;;;6.13;2.35;;;10.70;99.90;;;;;;4988652;28;20038;-81
2023/10/16 09:30:18;;;;;;;6.22;2.33;;;10.70;99.90;;;;;;4988201;28;20045;-81
2023/10/16 09:32:46;;;;;;;10.65;2.70;;;10.70;99.90;;;;;;4979985;28;20042;-80
2023/10/16 09:35:12;;;;;;;7.38;2.47;;;10.70;99.90;;;;;;4987319;28;20034;-81
2023/10/16 09:37:39;;;;;;;4.85;2.35;;;10.70;99.90;;;;;;4987951;28;20500;-81
2023/10/16 09:40:37;;;;;;;6.95;2.10;;;10.70;99.90;;;;;;4986777;28;20052;-80
2023/10/16 09:43:06;;;;;;;5.30;2.20;;;10.70;99.90;;;;;;5003361;28;20065;-80
2023/10/16 09:45:33;;;;;;;4.70;2.20;;;10.70;99.90;;;;;;4989086;28;20046;-81
2023/10/16 09:48:09;;;;;;;6.32;2.60;;;10.70;99.90;;;;;;4985570;28;20072;-81
2023/10/16 09:50:38;;;;;;;4.57;1.98;;;10.70;99.90;;;;;;4980361;28;20084;-81
2023/10/16 09:53:06;;;;;;;4.80;1.83;;;10.80;99.90;;;;;;5002438;28;20044;-81
2023/10/16 09:55:44;;;;;;;6.65;2.30;;;10.80;99.90;;;;;;4988031;28;20516;-80
2023/10/16 09:58:11;;;;;;;6.35;1.90;;;10.80;99.90;;;;;;4990033;28;20504;-81
2023/10/16 10:00:46;;;;;;;6.28;1.90;;;10.80;99.90;;;;;;4991222;28;20439;-81
2023/10/16 10:03:14;;;;;;;4.95;2.22;;;10.80;99.90;;;;;;5004183;28;20073;-81
2023/10/16 10:14:40;;;;;;;3.85;1.77;;;11.00;99.90;;;;;;4960401;28;20050;-81
2023/10/16 10:17:09;;;;;;;5.82;1.90;;;11.20;99.90;;;;;;4987476;28;20392;-81
2023/10/16 10:19:41;;;;;;;6.47;1.80;;;11.30;99.90;;;;;;4987602;28;20088;-81
2023/10/16 10:22:26;;;;;;;5.10;1.80;;;11.40;99.90;;;;;;4987437;28;20411;-81
2023/10/16 10:25:58;;;;;;;6.65;1.70;;;11.60;99.90;;;;;;5008575;28;21300;-81
2023/10/16 10:28:09;;;;;;;4.13;1.55;;;11.70;99.90;;;;;;5008120;28;20045;-82
2023/10/16 10:30:44;;;;;;;6.60;2.03;;;11.70;99.90;;;;;;5014947;28;20037;-81
2023/10/16 10:33:33;;;;;;;5.25;1.83;;;11.80;99.90;;;;;;5030200;28;20053;-82
2023/10/16 10:36:27;;;;;;;4.80;1.95;;;11.90;99.90;;;;;;4995476;28;20515;-82
2023/10/16 10:39:39;;;;;;;6.13;1.80;;;12.00;99.90;;;;;;5014656;28;20037;-82
2023/10/16 10:42:09;;;;;;;5.22;1.92;;;12.10;99.90;;;;;;5003613;28;20385;-82
2023/10/16 10:44:43;;;;;;;4.30;1.80;;;12.20;99.90;;;;;;5005102;28;20104;-82
2023/10/16 10:47:32;;;;;;;9.07;2.10;;;12.30;99.90;;;;;;5025084;28;20037;-81
2023/10/16 10:50:00;;;;;;;5.80;1.75;;;12.40;99.90;;;;;;5017654;28;20045;-81
2023/10/16 10:52:32;;;;;;;5.63;1.85;;;12.40;99.90;;;;;;5007690;28;20053;-80
2023/10/16 10:54:59;;;;;;;4.72;2.20;;;12.40;99.90;;;;;;5026544;28;20408;-80
2023/10/16 10:57:26;;;;;;;6.13;1.90;;;12.40;99.90;;;;;;5005616;28;20095;-81
2023/10/16 10:59:56;;;;;;;6.35;1.92;;;12.30;99.90;;;;;;5013096;28;20080;-80
2023/10/16 11:02:48;;;;;;;7.40;2.08;;;12.30;99.90;;;;;;5013809;28;20045;-80
2023/10/16 11:05:22;;;;;;;4.07;1.73;;;12.20;99.90;;;;;;5019352;28;20091;-81
2023/10/16 11:08:17;;;;;;;5.55;2.00;;;12.10;99.90;;;;;;5012819;28;20095;-81
2023/10/16 11:10:42;;;;;;;4.30;2.00;;;12.10;99.90;;;;;;5026773;28;20662;-80
2023/10/16 11:13:11;;;;;;;;;;;12.20;99.90;;;;;;5019601;28;20108;-80
2023/10/16 11:15:46;;;;;;;8.02;2.40;;;12.10;99.90;;;;;;4991799;28;19917;-81
2023/10/16 11:18:20;;;;;;;5.55;1.75;;;12.10;99.90;;;;;;5031168;28;20368;-81
2023/10/16 11:20:53;;;;;;;4.78;2.20;;;12.10;99.90;;;;;;5018180;28;20099;-81
2023/10/16 11:23:21;;;;;;;5.30;2.20;;;12.10;99.90;;;;;;5014383;28;20129;-81
2023/10/16 11:25:50;;;;;;;4.10;2.00;;;12.10;99.90;;;;;;5001952;28;20044;-82
2023/10/16 11:28:20;;;;;;;8.80;1.95;;;12.20;99.90;;;;;;5034477;28;20037;-81
2023/10/16 11:30:53;;;;;;;5.72;1.83;;;12.20;99.90;;;;;;5031783;28;20068;-81
2023/10/16 11:33:45;;;;;;;4.15;1.40;;;12.20;99.90;;;;;;5010847;28;20499;-81
2023/10/16 11:36:14;;;;;;;4.78;1.80;;;12.10;99.90;;;;;;5018192;28;20048;-80
2023/10/16 11:38:43;;;;;;;3.42;1.60;;;12.10;99.90;;;;;;5018360;28;20037;-81
2023/10/16 11:41:16;;;;;;;6.43;1.92;;;12.00;99.90;;;;;;5018826;28;20407;-81
2023/10/16 11:43:51;;;;;;;4.43;2.08;;;12.10;99.90;;;;;;4987138;28;20045;-80
2023/10/16 11:46:33;;;;;;;6.20;1.70;;;12.10;99.90;;;;;;5033953;28;20527;-80
2023/10/16 11:51:58;;;;;;;6.03;1.90;;;12.20;99.90;;;;;;5019790;28;20072;-80
2023/10/16 11:54:24;;;;;;;3.83;1.60;;;12.20;99.90;;;;;;5018026;28;20045;-81
2023/10/16 11:56:56;;;;;;;3.30;1.90;;;12.30;99.90;;;;;;5017918;28;20033;-81
2023/10/16 11:59:22;;;;;;;4.70;1.63;;;12.30;99.90;;;;;;5002125;28;20045;-81
2023/10/16 12:01:52;;;;;;;3.30;1.80;;;12.40;99.90;;;;;;5034347;28;20044;-80
2023/10/16 12:04:22;;;;;;;4.57;1.60;;;12.40;99.90;;;;;;5017825;28;20037;-80
2023/10/16 12:06:48;;;;;;;5.18;1.73;;;12.50;99.90;;;;;;5001505;28;20033;-80
2023/10/16 12:09:20;;;;;;;4.82;2.38;;;12.40;99.90;;;;;;5017782;28;20047;-80
2023/10/16 12:11:50;;;;;;;4.28;1.73;;;12.40;99.90;;;;;;5004346;28;20120;-80
2023/10/16 12:14:17;;;;;;;3.65;1.80;;;12.40;99.90;;;;;;5017525;28;20041;-80
2023/10/16 12:16:47;;;;;;;3.85;2.00;;;12.50;99.90;;;;;;4982157;28;20174;-80
2023/10/16 12:19:15;;;;;;;2.47;1.65;;;12.40;99.90;;;;;;5014431;28;20045;-80
2023/10/16 12:21:47;;;;;;;2.95;1.60;;;12.40;99.90;;;;;;5015872;28;20038;-80
2023/10/16 12:24:13;;;;;;;4.45;1.80;;;12.40;99.90;;;;;;5001629;28;20506;-80
2023/10/16 12:26:42;;;;;;;5.68;1.95;;;12.40;99.90;;;;;;5000237;28;20109;-80
2023/10/16 12:29:08;;;;;;;5.38;1.92;;;12.40;99.90;;;;;;5013565;28;20034;-80
2023/10/16 12:31:41;;;;;;;4.97;1.95;;;12.40;99.90;;;;;;5014398;28;20125;-80
2023/10/16 12:34:11;;;;;;;3.28;1.55;;;12.40;99.90;;;;;;5003557;28;20049;-80
2023/10/16 12:36:38;;;;;;;5.30;1.60;;;12.40;99.90;;;;;;5027039;28;20045;-80
2023/10/16 12:39:13;;;;;;;7.60;1.90;;;12.40;99.90;;;;;;5009586;28;20046;-80
2023/10/16 12:41:41;;;;;;;4.25;1.88;;;12.40;99.90;;;;;;4980106;28;20045;-82
2023/10/16 12:44:09;;;;;;;5.28;1.90;;;12.40;99.90;;;;;;4994379;28;20442;-82
2023/10/16 12:46:38;;;;;;;5.22;1.50;;;12.40;99.90;;;;;;4987908;28;20029;-83
2023/10/16 12:49:07;;;;;;;4.07;1.52;;;12.40;99.90;;;;;;4988733;28;20034;-82
2023/10/16 12:51:38;;;;;;;5.43;1.63;;;12.40;99.90;;;;;;4988272;28;20052;-81
2023/10/16 12:54:06;;;;;;;5.68;1.80;;;12.40;99.90;;;;;;4972624;28;20660;-82
2023/10/16 12:56:32;;;;;;;4.68;1.75;;;12.40;99.90;;;;;;4979873;28;20856;-82
2023/10/16 12:58:59;;;;;;;2.67;1.42;;;12.40;99.90;;;;;;4970709;28;20050;-82
2023/10/16 13:01:25;;;;;;;3.88;1.88;;;12.60;99.90;;;;;;4994726;28;20203;-82
2023/10/16 13:03:51;;;;;;;4.20;1.77;;;12.50;99.90;;;;;;4987600;28;20050;-81
2023/10/16 13:06:17;;;;;;;5.25;1.50;;;12.60;99.90;;;;;;4985650;28;20459;-80
2023/10/16 13:08:42;;;;;;;5.03;1.80;;;12.60;99.90;;;;;;4979690;28;20045;-80
2023/10/16 13:11:10;;;;;;;3.95;1.90;;;12.60;99.90;;;;;;4985349;28;20053;-82
2023/10/16 13:13:35;;;;;;;4.00;2.50;;;12.60;99.90;;;;;;4986191;28;20049;-80
2023/10/16 13:16:04;;;;;;;8.40;2.28;;;12.60;99.90;;;;;;4973353;28;20558;-81
2023/10/16 13:18:30;;;;;;;5.18;1.92;;;12.50;99.90;;;;;;4991338;28;20511;-81
2023/10/16 13:20:57;;;;;;;2.67;1.50;;;12.50;99.90;;;;;;4972988;28;20138;-81
2023/10/16 13:23:26;;;;;;;3.90;1.45;;;12.50;99.90;;;;;;4978878;28;20123;-80
2023/10/16 13:25:56;;;;;;;4.50;1.58;;;12.50;99.90;;;;;;4985504;28;20403;-81
2023/10/16 13:28:23;;;;;;;10.15;1.60;;;12.50;99.90;;;;;;4994062;28;20562;-80
2023/10/16 13:30:51;;;;;;;11.45;3.75;;;12.40;99.90;;;;;;5001518;28;20045;-81
2023/10/16 13:33:17;;;;;;;3.92;1.77;;;12.50;99.90;;;;;;4970636;28;20037;-81
2023/10/16 13:35:43;;;;;;;5.90;1.80;;;12.40;99.90;;;;;;4985467;28;20050;-82
2023/10/16 13:38:09;;;;;;;6.50;1.75;;;12.40;99.90;;;;;;4974011;28;20867;-80
2023/10/16 13:40:35;;;;;;;6.57;1.63;;;12.40;99.90;;;;;;5003095;28;20068;-82
2023/10/16 13:43:10;;;;;;;2.78;1.30;;;12.40;99.90;;;;;;4992388;28;20041;-82
2023/10/16 13:45:37;;;;;;;9.25;1.98;;;12.40;99.90;;;;;;4990864;28;20046;-82
2023/10/16 13:48:08;;;;;;;4.22;1.48;;;12.40;99.90;;;;;;4974974;28;20040;-80
2023/10/16 13:50:34;;;;;;;6.00;1.90;;;12.40;99.90;;;;;;4987310;28;20046;-81
2023/10/16 13:53:04;;;;;;;25.33;6.38;;;12.40;99.90;;;;;;4976759;28;20048;-80
2023/10/16 13:55:30;;;;;;;3.55;1.65;;;12.40;99.90;;;;;;4967270;28;20100;-82
2023/10/16 13:57:56;;;;;;;9.77;2.42;;;12.30;99.90;;;;;;4976730;28;20041;-81
2023/10/16 14:00:29;;;;;;;8.10;2.75;;;12.30;99.90;;;;;;4989168;28;20589;-81
2023/10/16 14:05:47;;;;;;;16.95;4.80;;;12.30;99.90;;;;;;5005065;28;20050;-78
2023/10/16 14:08:14;;;;;;;8.27;2.60;;;12.30;99.90;;;;;;4987105;28;20125;-78
2023/10/16 14:10:57;;;;;;;6.88;2.88;;;12.30;99.90;;;;;;4992675;28;20069;-80
2023/10/16 14:13:27;;;;;;;7.53;2.90;;;12.20;99.90;;;;;;4990667;28;20041;-81
2023/10/16 14:16:01;;;;;;;8.48;3.40;;;12.20;99.90;;;;;;5006321;28;20061;-77
2023/10/16 14:18:29;;;;;;;6.53;2.30;;;12.20;99.90;;;;;;4990655;28;20515;-79
2023/10/16 14:20:56;;;;;;;5.35;2.25;;;12.10;99.90;;;;;;5005391;28;20045;-79
2023/10/16 14:23:28;;;;;;;5.35;2.40;;;12.10;99.90;;;;;;4990368;28;20053;-79
2023/10/16 14:25:58;;;;;;;7.03;2.78;;;12.10;99.90;;;;;;5005405;28;20041;-78
2023/10/16 14:28:27;;;;;;;5.45;2.22;;;12.10;99.90;;;;;;5018281;28;20065;-81
2023/10/16 14:30:59;;;;;;;6.60;2.50;;;12.10;99.90;;;;;;5011339;28;20130;-89
2023/10/16 14:33:30;;;;;;;7.03;2.08;;;12.10;99.90;;;;;;5026569;28;20037;-79
2023/10/16 14:36:04;;;;;;;6.65;1.88;;;12.10;99.90;;;;;;5010257;28;20045;-79
2023/10/16 14:38:30;;;;;;;4.40;2.33;;;12.10;99.90;;;;;;5012554;28;20037;-80
2023/10/16 14:40:59;;;;;;;6.40;2.20;;;12.10;99.90;;;;;;4996160;28;20041;-84
2023/10/16 14:43:25;;;;;;;5.43;1.88;;;12.10;99.90;;;;;;5004375;28;20112;-86
2023/10/16 14:45:54;;;;;;;7.85;2.25;;;12.10;99.90;;;;;;4988297;28;20120;-87
2023/10/16 14:48:23;;;;;;;4.18;1.90;;;12.20;99.90;;;;;;5010992;28;20029;-86
2023/10/16 14:50:53;;;;;;;9.55;2.42;;;12.20;99.90;;;;;;5012053;28;20037;-88
2023/10/16 14:53:19;;;;;;;7.03;2.35;;;12.20;99.90;;;;;;5012452;28;20048;-89